createdAt,value
2018-01-21T00:01:43.262Z,2.60
2018-01-21T00:04:09.206Z,2.60
2018-01-21T00:06:35.171Z,2.60
2018-01-21T00:09:01.100Z,2.60
2018-01-21T00:11:27.075Z,2.60
2018-01-21T00:13:53.087Z,2.50
2018-01-21T00:16:19.019Z,2.60
2018-01-21T00:18:44.996Z,2.60
2018-01-21T00:21:10.960Z,2.60
2018-01-21T00:23:36.915Z,2.60
2018-01-21T00:26:02.884Z,2.60
2018-01-21T00:28:28.836Z,2.60
2018-01-21T00:30:55.700Z,2.70
2018-01-21T00:33:21.652Z,2.60
2018-01-21T00:35:47.584Z,2.70
2018-01-21T00:38:13.562Z,2.70
2018-01-21T00:40:39.507Z,2.60
2018-01-21T00:43:05.447Z,2.60
2018-01-21T00:45:31.535Z,2.70
2018-01-21T00:47:57.466Z,2.80
2018-01-21T00:50:23.436Z,2.80
2018-01-21T00:52:49.367Z,2.80
2018-01-21T00:55:15.327Z,2.90
2018-01-21T00:57:41.415Z,2.90
2018-01-21T01:00:07.353Z,2.80
2018-01-21T01:02:34.060Z,2.70
2018-01-21T01:05:00.027Z,2.70
2018-01-21T01:07:26.107Z,2.70
2018-01-21T01:09:52.067Z,2.70
2018-01-21T01:12:18.741Z,2.70
2018-01-21T01:14:44.718Z,2.70
2018-01-21T01:17:11.391Z,2.60
2018-01-21T01:19:37.324Z,2.60
2018-01-21T01:22:03.476Z,2.60
2018-01-21T01:24:29.428Z,2.60
2018-01-21T01:26:56.112Z,2.60
2018-01-21T01:29:22.215Z,2.50
2018-01-21T01:31:48.163Z,2.60
2018-01-21T01:34:14.147Z,2.60
2018-01-21T01:36:40.088Z,2.60
2018-01-21T01:39:06.086Z,2.60
2018-01-21T01:41:32.067Z,2.60
2018-01-21T01:43:57.999Z,2.60
2018-01-21T01:46:24.099Z,2.60
2018-01-21T01:48:50.048Z,2.70
2018-01-21T01:51:15.980Z,2.70
2018-01-21T01:53:42.700Z,2.70
2018-01-21T01:56:08.635Z,2.70
2018-01-21T01:58:34.617Z,2.70
2018-01-21T02:01:00.568Z,2.70
2018-01-21T02:03:26.515Z,2.70
2018-01-21T02:05:53.367Z,2.70
2018-01-21T02:08:20.035Z,2.70
2018-01-21T02:10:46.024Z,2.70
2018-01-21T02:13:12.696Z,2.80
2018-01-21T02:15:38.675Z,2.70
2018-01-21T02:18:05.351Z,2.70
2018-01-21T02:20:31.289Z,2.70
2018-01-21T02:22:57.278Z,2.70
2018-01-21T02:25:23.228Z,2.60
2018-01-21T02:27:49.315Z,2.60
2018-01-21T02:30:15.435Z,2.60
2018-01-21T02:32:42.128Z,2.50
2018-01-21T02:35:08.127Z,2.50
2018-01-21T02:37:34.056Z,2.50
2018-01-21T02:40:00.013Z,2.50
2018-01-21T02:42:25.955Z,2.50
2018-01-21T02:44:52.780Z,2.50
2018-01-21T02:47:18.711Z,2.50
2018-01-21T02:49:44.667Z,2.40
2018-01-21T02:52:10.621Z,2.40
2018-01-21T02:54:36.588Z,2.30
2018-01-21T02:57:03.428Z,2.40
2018-01-21T02:59:30.107Z,2.30
2018-01-21T03:01:56.050Z,2.30
2018-01-21T03:04:22.123Z,2.40
2018-01-21T03:06:48.080Z,2.40
2018-01-21T03:09:14.071Z,2.40
2018-01-21T03:11:40.764Z,2.40
2018-01-21T03:14:06.720Z,2.40
2018-01-21T03:16:33.404Z,2.40
2018-01-21T03:18:59.499Z,2.40
2018-01-21T03:21:25.576Z,2.40
2018-01-21T03:23:51.507Z,2.40
2018-01-21T03:26:17.485Z,2.40
2018-01-21T03:28:43.426Z,2.40
2018-01-21T03:31:09.394Z,2.40
2018-01-21T03:33:35.330Z,2.40
2018-01-21T03:36:01.419Z,2.50
2018-01-21T03:38:27.420Z,2.40
2018-01-21T03:40:53.356Z,2.50
2018-01-21T03:43:19.290Z,2.40
2018-01-21T03:45:45.261Z,2.40
2018-01-21T03:48:11.231Z,2.40
2018-01-21T03:50:37.180Z,2.40
2018-01-21T03:53:03.261Z,2.50
2018-01-21T03:55:29.203Z,2.40
2018-01-21T03:57:55.127Z,2.50
2018-01-21T04:00:21.122Z,2.40
2018-01-21T04:02:47.055Z,2.40
2018-01-21T04:05:13.140Z,2.40
2018-01-21T04:07:39.115Z,2.50
2018-01-21T04:10:05.067Z,2.50
2018-01-21T04:12:30.987Z,2.50
2018-01-21T04:14:56.946Z,2.50
2018-01-21T04:17:22.871Z,2.60
2018-01-21T04:19:48.861Z,2.50
2018-01-21T04:22:14.959Z,2.50
2018-01-21T04:24:41.812Z,2.50
2018-01-21T04:27:08.492Z,2.50
2018-01-21T04:29:34.486Z,2.50
2018-01-21T04:32:00.440Z,2.50
2018-01-21T04:34:26.375Z,2.40
2018-01-21T04:36:52.340Z,2.40
2018-01-21T04:39:19.017Z,2.40
2018-01-21T04:41:45.087Z,2.40
2018-01-21T04:44:11.767Z,2.40
2018-01-21T04:46:37.708Z,2.40
2018-01-21T04:49:03.793Z,2.50
2018-01-21T04:51:29.757Z,2.50
2018-01-21T04:53:55.700Z,2.50
2018-01-21T04:56:21.771Z,2.60
2018-01-21T04:58:47.744Z,2.60
2018-01-21T05:01:13.708Z,2.60
2018-01-21T05:03:39.653Z,2.60
2018-01-21T05:06:05.595Z,2.60
2018-01-21T05:08:31.773Z,2.60
2018-01-21T05:10:58.004Z,2.50
2018-01-21T05:13:24.042Z,2.50
2018-01-21T05:15:49.968Z,2.50
2018-01-21T05:18:16.040Z,2.50
2018-01-21T05:20:41.976Z,2.40
2018-01-21T05:23:08.795Z,2.40
2018-01-21T05:25:34.792Z,2.40
2018-01-21T05:28:00.759Z,2.30
2018-01-21T05:30:27.432Z,2.40
2018-01-21T05:32:53.348Z,2.40
2018-01-21T05:35:19.313Z,2.40
2018-01-21T05:37:45.258Z,2.30
2018-01-21T05:40:11.187Z,2.40
2018-01-21T05:42:38.011Z,2.50
2018-01-21T05:45:03.939Z,2.40
2018-01-21T05:47:29.906Z,2.50
2018-01-21T05:49:55.843Z,2.50
2018-01-21T05:52:21.825Z,2.50
2018-01-21T05:54:47.767Z,2.60
2018-01-21T05:57:13.719Z,2.50
2018-01-21T05:59:39.830Z,2.60
2018-01-21T06:02:05.760Z,2.60
2018-01-21T06:04:31.736Z,2.50
2018-01-21T06:06:58.415Z,2.50
2018-01-21T06:09:24.355Z,2.50
2018-01-21T06:11:50.317Z,2.50
2018-01-21T06:14:17.004Z,2.50
2018-01-21T06:16:43.080Z,2.40
2018-01-21T06:19:09.797Z,2.50
2018-01-21T06:21:35.892Z,2.50
2018-01-21T06:24:01.880Z,2.50
2018-01-21T06:26:27.837Z,2.60
2018-01-21T06:28:53.905Z,2.50
2018-01-21T06:31:20.596Z,2.60
2018-01-21T06:33:46.588Z,2.50
2018-01-21T06:36:12.541Z,2.50
2018-01-21T06:38:38.504Z,2.50
2018-01-21T06:41:04.423Z,2.50
2018-01-21T06:43:30.380Z,2.50
2018-01-21T06:45:56.360Z,2.50
2018-01-21T06:48:22.297Z,2.40
2018-01-21T06:50:49.140Z,2.50
2018-01-21T06:53:15.850Z,2.50
2018-01-21T06:55:41.784Z,2.40
2018-01-21T06:58:07.727Z,2.50
2018-01-21T07:00:34.453Z,2.40
2018-01-21T07:03:00.388Z,2.40
2018-01-21T07:05:27.220Z,2.50
2018-01-21T07:07:53.155Z,2.50
2018-01-21T07:10:19.863Z,2.50
2018-01-21T07:12:45.810Z,2.50
2018-01-21T07:15:12.504Z,2.50
2018-01-21T07:17:38.469Z,2.50
2018-01-21T07:20:05.163Z,2.40
2018-01-21T07:22:31.386Z,2.40
2018-01-21T07:24:57.331Z,2.40
2018-01-21T07:27:23.290Z,2.40
2018-01-21T07:29:49.233Z,2.40
2018-01-21T07:32:15.194Z,2.40
2018-01-21T07:34:44.135Z,2.50
2018-01-21T07:37:10.095Z,2.40
2018-01-21T07:39:36.200Z,2.40
2018-01-21T07:42:02.138Z,2.40
2018-01-21T07:44:28.076Z,2.50
2018-01-21T07:46:54.154Z,2.40
2018-01-21T07:49:20.105Z,2.40
2018-01-21T07:51:46.092Z,2.40
2018-01-21T07:54:12.041Z,2.40
2018-01-21T07:56:37.976Z,2.40
2018-01-21T07:59:04.048Z,2.40
2018-01-21T08:01:29.986Z,2.40
2018-01-21T08:03:56.075Z,2.30
2018-01-21T08:06:22.008Z,2.30
2018-01-21T08:08:48.686Z,2.30
2018-01-21T08:11:14.647Z,2.20
2018-01-21T08:13:40.623Z,2.30
2018-01-21T08:16:06.618Z,2.30
2018-01-21T08:18:33.364Z,2.30
2018-01-21T08:21:00.052Z,2.30
2018-01-21T08:23:26.226Z,2.30
2018-01-21T08:25:52.924Z,2.30
2018-01-21T08:28:18.876Z,2.30
2018-01-21T08:30:45.629Z,2.30
2018-01-21T08:33:12.324Z,2.40
2018-01-21T08:35:38.302Z,2.30
2018-01-21T08:38:04.228Z,2.30
2018-01-21T08:40:30.168Z,2.40
2018-01-21T08:42:56.263Z,2.40
2018-01-21T08:45:22.959Z,2.40
2018-01-21T08:47:48.965Z,2.40
2018-01-21T08:50:14.968Z,2.50
2018-01-21T08:52:41.063Z,2.50
2018-01-21T08:55:07.751Z,2.50
2018-01-21T08:57:33.692Z,2.50
2018-01-21T08:59:59.704Z,2.50
2018-01-21T09:02:25.660Z,2.50
2018-01-21T09:04:52.383Z,2.50
2018-01-21T09:07:18.341Z,2.60
2018-01-21T09:09:44.316Z,2.60
2018-01-21T09:12:10.439Z,2.60
2018-01-21T09:14:36.396Z,2.50
2018-01-21T09:17:02.417Z,2.50
2018-01-21T09:19:30.007Z,2.50
2018-01-21T09:21:55.980Z,2.50
2018-01-21T09:24:21.984Z,2.60
2018-01-21T09:26:47.965Z,2.70
2018-01-21T09:29:14.376Z,2.70
2018-01-21T09:31:41.092Z,2.80
2018-01-21T09:34:07.060Z,2.80
2018-01-21T09:36:33.165Z,2.90
2018-01-21T09:38:59.439Z,2.90
2018-01-21T09:41:25.442Z,2.80
2018-01-21T09:43:51.395Z,2.80
2018-01-21T09:46:17.380Z,2.80
2018-01-21T09:48:43.343Z,2.90
2018-01-21T09:51:09.284Z,2.90
2018-01-21T09:53:35.355Z,2.90
2018-01-21T09:56:01.344Z,2.90
2018-01-21T09:58:28.061Z,2.90
2018-01-21T10:00:54.141Z,2.90
2018-01-21T10:03:20.131Z,2.90
2018-01-21T10:05:47.818Z,2.80
2018-01-21T10:08:14.084Z,2.80
2018-01-21T10:10:41.019Z,2.70
2018-01-21T10:13:06.988Z,2.70
2018-01-21T10:15:33.723Z,2.70
2018-01-21T10:17:59.708Z,2.70
2018-01-21T10:20:25.687Z,2.70
2018-01-21T10:22:52.428Z,2.80
2018-01-21T10:25:19.131Z,2.90
2018-01-21T10:27:45.120Z,2.90
2018-01-21T10:30:11.367Z,3.00
2018-01-21T10:32:37.320Z,3.10
2018-01-21T10:35:03.301Z,3.20
2018-01-21T10:37:29.284Z,3.20
2018-01-21T10:39:55.233Z,3.40
2018-01-21T10:42:21.319Z,3.40
2018-01-21T10:44:48.022Z,3.60
2018-01-21T10:47:14.012Z,3.60
2018-01-21T10:49:40.016Z,3.50
2018-01-21T10:52:06.008Z,3.40
2018-01-21T10:54:31.973Z,3.30
2018-01-21T10:56:57.941Z,3.20
2018-01-21T10:59:24.041Z,3.20
2018-01-21T11:01:50.010Z,3.30
2018-01-21T11:04:16.116Z,3.30
2018-01-21T11:06:42.081Z,3.30
2018-01-21T11:09:08.801Z,3.20
2018-01-21T11:11:35.567Z,3.20
2018-01-21T11:14:01.547Z,3.20
2018-01-21T11:16:27.493Z,3.30
2018-01-21T11:18:54.273Z,3.50
2018-01-21T11:21:20.365Z,3.40
2018-01-21T11:23:46.857Z,3.50
2018-01-21T11:26:12.813Z,3.60
2018-01-21T11:28:39.697Z,3.70
2018-01-21T11:31:05.681Z,3.70
2018-01-21T11:33:32.400Z,3.80
2018-01-21T11:35:58.505Z,3.80
2018-01-21T11:38:24.507Z,3.90
2018-01-21T11:40:50.502Z,3.90
2018-01-21T11:43:17.404Z,3.80
2018-01-21T11:45:43.375Z,3.70
2018-01-21T11:48:09.325Z,3.70
2018-01-21T11:50:35.313Z,3.50
2018-01-21T11:53:02.027Z,3.40
2018-01-21T11:55:28.013Z,3.40
2018-01-21T11:57:53.974Z,3.40
2018-01-21T12:00:20.109Z,3.40
2018-01-21T12:02:46.785Z,3.30
2018-01-21T12:05:12.764Z,3.30
2018-01-21T12:07:39.488Z,3.50
2018-01-21T12:10:05.505Z,3.50
2018-01-21T12:12:31.478Z,3.50
2018-01-21T12:14:57.419Z,3.60
2018-01-21T12:17:23.549Z,3.70
2018-01-21T12:19:50.285Z,3.90
2018-01-21T12:22:16.396Z,3.80
2018-01-21T12:24:42.349Z,3.90
2018-01-21T12:27:08.314Z,4.00
2018-01-21T12:29:35.037Z,3.90
2018-01-21T12:32:00.979Z,3.90
2018-01-21T12:34:27.819Z,3.70
2018-01-21T12:36:54.543Z,3.70
2018-01-21T12:39:20.512Z,3.70
2018-01-21T12:41:46.456Z,3.80
2018-01-21T12:44:12.431Z,3.80
2018-01-21T12:46:39.693Z,3.70
2018-01-21T12:49:05.647Z,3.70
2018-01-21T12:51:31.777Z,3.70
2018-01-21T12:53:57.737Z,3.70
2018-01-21T12:56:23.728Z,3.70
2018-01-21T12:58:49.800Z,3.80
2018-01-21T13:01:15.819Z,3.80
2018-01-21T13:03:42.571Z,3.90
2018-01-21T13:06:10.069Z,3.90
2018-01-21T13:08:36.185Z,3.90
2018-01-21T13:11:02.771Z,3.90
2018-01-21T13:13:29.496Z,4.10
2018-01-21T13:15:55.468Z,4.10
2018-01-21T13:18:21.500Z,4.10
2018-01-21T13:20:47.457Z,3.90
2018-01-21T13:23:13.720Z,3.90
2018-01-21T13:25:40.460Z,3.80
2018-01-21T13:28:06.412Z,3.80
2018-01-21T13:30:32.381Z,3.90
2018-01-21T13:32:58.364Z,3.90
2018-01-21T13:35:24.705Z,3.90
2018-01-21T13:37:50.703Z,4.00
2018-01-21T13:40:16.647Z,4.00
2018-01-21T13:42:42.818Z,4.00
2018-01-21T13:45:08.764Z,4.00
2018-01-21T13:47:34.725Z,4.00
2018-01-21T13:50:00.712Z,4.00
2018-01-21T13:52:26.682Z,4.10
2018-01-21T13:54:52.648Z,4.10
2018-01-21T13:57:18.592Z,4.20
2018-01-21T13:59:44.729Z,4.20
2018-01-21T14:02:10.676Z,4.20
2018-01-21T14:04:36.622Z,4.20
2018-01-21T14:07:03.391Z,4.20
2018-01-21T14:09:30.076Z,4.20
2018-01-21T14:11:56.055Z,4.20
2018-01-21T14:14:22.036Z,4.30
2018-01-21T14:16:47.975Z,4.30
2018-01-21T14:19:14.048Z,4.30
2018-01-21T14:21:40.141Z,4.40
2018-01-21T14:24:06.127Z,4.30
2018-01-21T14:26:32.061Z,4.40
2018-01-21T14:28:58.879Z,4.50
2018-01-21T14:31:24.847Z,4.50
2018-01-21T14:33:50.796Z,4.40
2018-01-21T14:36:16.926Z,4.40
2018-01-21T14:38:42.880Z,4.30
2018-01-21T14:41:09.582Z,4.30
2018-01-21T14:43:35.553Z,4.30
2018-01-21T14:46:02.234Z,4.40
2018-01-21T14:48:28.173Z,4.40
2018-01-21T14:50:54.160Z,4.40
2018-01-21T14:53:21.063Z,4.40
2018-01-21T14:55:47.160Z,4.50
2018-01-21T14:58:13.136Z,4.50
2018-01-21T15:00:39.162Z,4.50
2018-01-21T15:03:05.180Z,4.60
2018-01-21T15:05:31.926Z,4.70
2018-01-21T15:07:57.959Z,4.70
2018-01-21T15:10:23.954Z,4.60
2018-01-21T15:12:49.985Z,4.60
2018-01-21T15:15:16.110Z,4.60
2018-01-21T15:17:42.083Z,4.60
2018-01-21T15:20:08.091Z,4.50
2018-01-21T15:22:34.168Z,4.50
2018-01-21T15:25:00.904Z,4.50
2018-01-21T15:27:26.905Z,4.50
2018-01-21T15:29:52.887Z,4.50
2018-01-21T15:32:19.044Z,4.50
2018-01-21T15:34:45.069Z,4.50
2018-01-21T15:37:11.046Z,4.50
2018-01-21T15:39:38.043Z,4.40
2018-01-21T15:42:04.012Z,4.40
2018-01-21T15:44:30.764Z,4.50
2018-01-21T15:46:56.728Z,4.40
2018-01-21T15:49:22.847Z,4.50
2018-01-21T15:51:48.834Z,4.50
2018-01-21T15:54:14.809Z,4.50
2018-01-21T15:56:40.834Z,4.50
2018-01-21T15:59:06.808Z,4.40
2018-01-21T16:01:32.787Z,4.30
2018-01-21T16:03:58.764Z,4.30
2018-01-21T16:06:24.947Z,4.20
2018-01-21T16:08:51.682Z,4.30
2018-01-21T16:11:18.405Z,4.30
2018-01-21T16:13:44.445Z,4.30
2018-01-21T16:16:10.402Z,4.40
2018-01-21T16:18:36.420Z,4.50
2018-01-21T16:21:02.434Z,4.50
2018-01-21T16:23:28.583Z,4.40
2018-01-21T16:25:54.777Z,4.40
2018-01-21T16:28:21.542Z,4.50
2018-01-21T16:30:47.617Z,4.50
2018-01-21T16:33:13.665Z,4.60
2018-01-21T16:35:40.397Z,4.50
2018-01-21T16:38:07.182Z,4.50
2018-01-21T16:40:33.242Z,4.50
2018-01-21T16:43:00.270Z,4.40
2018-01-21T16:45:26.252Z,4.40
2018-01-21T16:47:52.245Z,4.30
2018-01-21T16:50:18.263Z,4.30
2018-01-21T16:52:45.141Z,4.40
2018-01-21T16:55:11.126Z,4.40
2018-01-21T16:57:37.149Z,4.40
2018-01-21T17:00:03.276Z,4.40
2018-01-21T17:02:29.520Z,4.40
2018-01-21T17:04:56.276Z,4.40
2018-01-21T17:07:22.305Z,4.30
2018-01-21T17:09:50.295Z,4.30
2018-01-21T17:12:16.265Z,4.30
2018-01-21T17:14:46.160Z,4.30
2018-01-21T17:17:12.160Z,4.20
2018-01-21T17:19:39.969Z,4.20
2018-01-21T17:22:07.552Z,4.20
2018-01-21T17:24:33.741Z,4.20
2018-01-21T17:26:59.776Z,4.20
2018-01-21T17:29:25.792Z,4.10
2018-01-21T17:31:51.808Z,4.10
2018-01-21T17:34:17.780Z,4.10
2018-01-21T17:36:43.770Z,4.10
2018-01-21T17:39:09.904Z,4.00
2018-01-21T17:41:36.648Z,4.00
2018-01-21T17:44:02.618Z,4.00
2018-01-21T17:46:28.632Z,4.00
2018-01-21T17:48:54.605Z,4.00
2018-01-21T17:51:20.843Z,4.00
2018-01-21T17:53:47.643Z,4.00
2018-01-21T17:56:13.688Z,4.00
2018-01-21T17:58:39.739Z,4.00
2018-01-21T18:01:06.103Z,4.00
2018-01-21T18:03:32.261Z,4.00
2018-01-21T18:05:59.959Z,4.00
2018-01-21T18:08:28.758Z,3.90
2018-01-21T18:10:54.823Z,4.00
2018-01-21T18:13:20.832Z,3.90
2018-01-21T18:15:46.788Z,3.90
2018-01-21T18:18:12.754Z,3.90
2018-01-21T18:20:38.764Z,3.90
2018-01-21T18:23:05.547Z,3.80
2018-01-21T18:25:32.420Z,3.80
2018-01-21T18:27:58.373Z,3.70
2018-01-21T18:30:25.212Z,3.60
2018-01-21T18:32:51.952Z,3.60
2018-01-21T18:35:18.649Z,3.50
2018-01-21T18:37:44.683Z,3.50
2018-01-21T18:40:10.641Z,3.50
2018-01-21T18:42:36.589Z,3.40
2018-01-21T18:45:02.608Z,3.40
2018-01-21T18:47:28.572Z,3.30
2018-01-21T18:49:54.566Z,3.40
2018-01-21T18:52:20.497Z,3.40
2018-01-21T18:54:46.500Z,3.30
2018-01-21T18:57:12.529Z,3.30
2018-01-21T18:59:38.549Z,3.30
2018-01-21T19:02:04.519Z,3.20
2018-01-21T19:04:30.480Z,3.30
2018-01-21T19:06:56.457Z,3.20
2018-01-21T19:09:22.417Z,3.20
2018-01-21T19:11:49.121Z,3.20
2018-01-21T19:14:15.167Z,3.20
2018-01-21T19:16:41.883Z,3.20
2018-01-21T19:19:07.857Z,3.20
2018-01-21T19:21:33.812Z,3.20
2018-01-21T19:37:58.247Z,3.20
2018-01-21T19:40:24.561Z,3.20
2018-01-21T19:42:51.283Z,3.20
2018-01-21T19:45:17.265Z,3.20
2018-01-21T19:47:43.262Z,3.20
2018-01-21T19:50:09.226Z,3.30
2018-01-21T19:52:35.334Z,3.30
2018-01-21T19:55:01.325Z,3.40
2018-01-21T19:57:28.048Z,3.50
2018-01-21T19:59:54.064Z,3.50
2018-01-21T20:02:20.038Z,3.50
2018-01-21T20:04:46.120Z,3.60
2018-01-21T20:07:12.046Z,3.60
2018-01-21T20:09:38.785Z,3.60
2018-01-21T20:12:05.478Z,3.60
2018-01-21T20:14:31.489Z,3.60
2018-01-21T20:16:57.462Z,3.70
2018-01-21T20:19:23.447Z,3.70
2018-01-21T20:21:49.414Z,3.60
2018-01-21T20:24:16.284Z,3.60
2018-01-21T20:26:42.391Z,3.60
2018-01-21T20:29:09.076Z,3.70
2018-01-21T20:31:35.077Z,3.60
2018-01-21T20:34:01.026Z,3.60
2018-01-21T20:36:27.125Z,3.50
2018-01-21T20:38:53.117Z,3.50
2018-01-21T20:41:19.823Z,3.50
2018-01-21T20:43:45.809Z,3.40
2018-01-21T20:46:11.760Z,3.50
2018-01-21T20:48:37.734Z,3.40
2018-01-21T20:51:03.708Z,3.30
2018-01-21T20:53:29.683Z,3.30
2018-01-21T20:55:55.816Z,3.30
2018-01-21T20:58:21.773Z,3.30
2018-01-21T21:00:47.764Z,3.20
2018-01-21T21:03:13.718Z,3.30
2018-01-21T21:05:39.747Z,3.40
2018-01-21T21:08:05.699Z,3.40
2018-01-21T21:10:32.381Z,3.40
2018-01-21T21:12:58.523Z,3.40
2018-01-21T21:15:24.508Z,3.50
2018-01-21T21:17:50.518Z,3.50
2018-01-21T21:20:16.494Z,3.50
2018-01-21T21:22:42.627Z,3.40
2018-01-21T21:25:08.637Z,3.30
2018-01-21T21:27:34.579Z,3.30
2018-01-21T21:30:00.704Z,3.30
2018-01-21T21:32:26.641Z,3.30
2018-01-21T21:34:52.606Z,3.40
2018-01-21T21:37:18.617Z,3.40
2018-01-21T21:39:44.572Z,3.40
2018-01-21T21:42:10.543Z,3.40
2018-01-21T21:44:37.247Z,3.50
2018-01-21T21:47:03.357Z,3.40
2018-01-21T21:49:29.341Z,3.40
2018-01-21T21:51:55.303Z,3.40
2018-01-21T21:54:21.308Z,3.40
2018-01-21T21:56:47.264Z,3.40
2018-01-21T21:59:13.273Z,3.30
2018-01-21T22:01:39.225Z,3.30
2018-01-21T22:04:05.192Z,3.20
2018-01-21T22:06:31.296Z,3.00
2018-01-21T22:08:57.971Z,3.00
2018-01-21T22:11:23.955Z,3.00
2018-01-21T22:13:49.949Z,3.00
2018-01-21T22:16:15.891Z,2.90
2018-01-21T22:18:41.892Z,3.00
2018-01-21T22:21:07.838Z,3.10
2018-01-21T22:23:34.083Z,3.10
2018-01-21T22:26:00.067Z,3.00
2018-01-21T22:28:26.061Z,2.90
2018-01-21T22:30:52.033Z,2.90
2018-01-21T22:33:17.984Z,2.90
2018-01-21T22:35:43.952Z,2.90
2018-01-21T22:38:09.887Z,2.90
2018-01-21T22:40:36.783Z,2.90
2018-01-21T22:43:02.761Z,2.90
2018-01-21T22:45:29.450Z,2.90
2018-01-21T22:47:55.441Z,2.90
2018-01-21T22:50:21.400Z,2.90
2018-01-21T22:52:47.392Z,2.90
2018-01-21T22:55:13.355Z,2.90
2018-01-21T22:57:39.447Z,2.90
2018-01-21T23:00:05.384Z,3.00
2018-01-21T23:02:31.363Z,3.00
2018-01-21T23:04:57.314Z,3.00
2018-01-21T23:07:23.297Z,3.10
2018-01-21T23:09:50.004Z,3.20
2018-01-21T23:12:15.949Z,3.20
2018-01-21T23:14:42.032Z,3.20
2018-01-21T23:17:07.963Z,3.30
2018-01-21T23:19:34.072Z,3.20
2018-01-21T23:22:00.196Z,3.00
2018-01-21T23:24:26.140Z,3.00
2018-01-21T23:26:52.216Z,2.90
2018-01-21T23:29:18.893Z,2.70
2018-01-21T23:31:44.867Z,2.70
2018-01-21T23:34:11.536Z,2.60
2018-01-21T23:36:37.640Z,2.60
2018-01-21T23:39:03.587Z,2.50
2018-01-21T23:41:29.533Z,2.50
2018-01-21T23:43:55.504Z,2.60
2018-01-21T23:46:22.192Z,2.60
2018-01-21T23:48:48.274Z,2.60
2018-01-21T23:51:14.208Z,2.60
2018-01-21T23:53:40.235Z,2.60
2018-01-21T23:56:06.254Z,2.60
2018-01-21T23:58:32.201Z,2.60
